Terminal Aerodrome Forecast
Issued by NWS Grand Forks, ND

Home | Current Version | Previous Version | Text Only | Print | Product List | Glossary Off
Versions: 1 2 3 4 5 6 7 8 9 10 11 12 13 14 15 16 17 18 19 20 21

182
FTUS43 KFGF 210539
TAFFAR
TAF
KFAR 210539Z 2106/2206 32023G33KT P6SM SCT025 BKN035
     FM210800 33025G35KT P6SM BKN025
     FM211600 33020G30KT P6SM SCT030
     FM212200 32015KT P6SM FEW250=

USA.gov is the U.S. government's official web portal to all federal, state and local government web resources and services.